sensor_id;sensor_type;location;lat;lon;timestamp;P1;durP1;ratioP1;P2;durP2;ratioP2
3347;SDS011;1687;49.540;8.574;2023-09-19T00:00:29;2.30;;;1.20;;
3347;SDS011;1687;49.540;8.574;2023-09-19T00:02:56;2.33;;;1.23;;
3347;SDS011;1687;49.540;8.574;2023-09-19T00:05:26;2.77;;;1.20;;
3347;SDS011;1687;49.540;8.574;2023-09-19T00:07:54;3.90;;;2.03;;
3347;SDS011;1687;49.540;8.574;2023-09-19T00:10:24;8.93;;;1.50;;
3347;SDS011;1687;49.540;8.574;2023-09-19T00:12:51;4.07;;;1.40;;
3347;SDS011;1687;49.540;8.574;2023-09-19T00:15:20;8.43;;;1.33;;
3347;SDS011;1687;49.540;8.574;2023-09-19T00:17:47;4.30;;;1.47;;
3347;SDS011;1687;49.540;8.574;2023-09-19T00:20:13;5.37;;;1.40;;
3347;SDS011;1687;49.540;8.574;2023-09-19T00:22:42;3.00;;;1.10;;
3347;SDS011;1687;49.540;8.574;2023-09-19T00:25:08;5.00;;;1.87;;
3347;SDS011;1687;49.540;8.574;2023-09-19T00:27:39;16.93;;;1.50;;
3347;SDS011;1687;49.540;8.574;2023-09-19T00:30:08;3.00;;;1.57;;
3347;SDS011;1687;49.540;8.574;2023-09-19T00:32:41;3.13;;;1.23;;
3347;SDS011;1687;49.540;8.574;2023-09-19T00:35:07;3.10;;;1.63;;
3347;SDS011;1687;49.540;8.574;2023-09-19T00:37:37;4.40;;;1.67;;
3347;SDS011;1687;49.540;8.574;2023-09-19T00:40:04;4.60;;;1.37;;
3347;SDS011;1687;49.540;8.574;2023-09-19T00:42:35;4.40;;;1.50;;
3347;SDS011;1687;49.540;8.574;2023-09-19T00:45:03;5.20;;;2.20;;
3347;SDS011;1687;49.540;8.574;2023-09-19T00:47:30;9.20;;;1.77;;
3347;SDS011;1687;49.540;8.574;2023-09-19T00:49:56;8.60;;;1.90;;
3347;SDS011;1687;49.540;8.574;2023-09-19T00:52:22;4.27;;;1.70;;
3347;SDS011;1687;49.540;8.574;2023-09-19T00:54:48;8.50;;;1.97;;
3347;SDS011;1687;49.540;8.574;2023-09-19T00:57:15;3.70;;;1.80;;
3347;SDS011;1687;49.540;8.574;2023-09-19T00:59:44;6.27;;;2.17;;
3347;SDS011;1687;49.540;8.574;2023-09-19T01:02:13;7.83;;;2.40;;
3347;SDS011;1687;49.540;8.574;2023-09-19T01:04:40;5.03;;;2.07;;
3347;SDS011;1687;49.540;8.574;2023-09-19T01:07:06;3.73;;;1.80;;
3347;SDS011;1687;49.540;8.574;2023-09-19T01:09:33;6.43;;;2.00;;
3347;SDS011;1687;49.540;8.574;2023-09-19T01:12:01;4.20;;;2.00;;
3347;SDS011;1687;49.540;8.574;2023-09-19T01:14:38;8.03;;;1.50;;
3347;SDS011;1687;49.540;8.574;2023-09-19T01:23:13;7.33;;;2.37;;
3347;SDS011;1687;49.540;8.574;2023-09-19T01:32:04;5.30;;;2.13;;
3347;SDS011;1687;49.540;8.574;2023-09-19T01:34:46;4.30;;;2.47;;
3347;SDS011;1687;49.540;8.574;2023-09-19T01:37:22;6.37;;;2.13;;
3347;SDS011;1687;49.540;8.574;2023-09-19T01:39:53;6.30;;;2.60;;
3347;SDS011;1687;49.540;8.574;2023-09-19T01:42:42;6.67;;;2.20;;
3347;SDS011;1687;49.540;8.574;2023-09-19T01:51:46;5.43;;;1.83;;
3347;SDS011;1687;49.540;8.574;2023-09-19T01:54:42;5.90;;;1.80;;
3347;SDS011;1687;49.540;8.574;2023-09-19T01:57:17;7.90;;;2.47;;
3347;SDS011;1687;49.540;8.574;2023-09-19T02:00:01;10.07;;;1.47;;
3347;SDS011;1687;49.540;8.574;2023-09-19T02:02:33;4.13;;;2.13;;
3347;SDS011;1687;49.540;8.574;2023-09-19T02:05:03;11.83;;;2.50;;
3347;SDS011;1687;49.540;8.574;2023-09-19T02:07:30;4.23;;;2.63;;
3347;SDS011;1687;49.540;8.574;2023-09-19T02:09:59;4.47;;;1.83;;
3347;SDS011;1687;49.540;8.574;2023-09-19T02:12:30;4.73;;;2.40;;
3347;SDS011;1687;49.540;8.574;2023-09-19T02:14:58;14.23;;;2.50;;
3347;SDS011;1687;49.540;8.574;2023-09-19T02:17:24;4.60;;;2.23;;
3347;SDS011;1687;49.540;8.574;2023-09-19T02:19:51;6.43;;;2.57;;
3347;SDS011;1687;49.540;8.574;2023-09-19T02:22:20;4.93;;;2.10;;
3347;SDS011;1687;49.540;8.574;2023-09-19T02:24:47;4.20;;;1.83;;
3347;SDS011;1687;49.540;8.574;2023-09-19T02:27:13;6.80;;;1.97;;
3347;SDS011;1687;49.540;8.574;2023-09-19T02:29:41;6.10;;;2.23;;
3347;SDS011;1687;49.540;8.574;2023-09-19T02:32:07;4.67;;;2.37;;
3347;SDS011;1687;49.540;8.574;2023-09-19T02:34:34;4.80;;;2.07;;
3347;SDS011;1687;49.540;8.574;2023-09-19T02:37:04;2.67;;;1.40;;
3347;SDS011;1687;49.540;8.574;2023-09-19T02:39:30;3.33;;;1.70;;
3347;SDS011;1687;49.540;8.574;2023-09-19T02:41:57;8.60;;;2.00;;
3347;SDS011;1687;49.540;8.574;2023-09-19T02:44:23;8.03;;;1.70;;
3347;SDS011;1687;49.540;8.574;2023-09-19T02:46:49;4.90;;;1.47;;
3347;SDS011;1687;49.540;8.574;2023-09-19T02:49:15;3.57;;;1.80;;
3347;SDS011;1687;49.540;8.574;2023-09-19T02:51:42;4.37;;;1.70;;
3347;SDS011;1687;49.540;8.574;2023-09-19T02:54:08;4.70;;;1.73;;
3347;SDS011;1687;49.540;8.574;2023-09-19T02:56:35;6.60;;;1.77;;
3347;SDS011;1687;49.540;8.574;2023-09-19T02:59:02;5.30;;;1.50;;
3347;SDS011;1687;49.540;8.574;2023-09-19T03:01:28;4.00;;;1.77;;
3347;SDS011;1687;49.540;8.574;2023-09-19T03:03:54;16.43;;;1.50;;
3347;SDS011;1687;49.540;8.574;2023-09-19T03:06:20;2.53;;;1.40;;
3347;SDS011;1687;49.540;8.574;2023-09-19T03:08:46;5.20;;;1.90;;
3347;SDS011;1687;49.540;8.574;2023-09-19T03:11:13;6.03;;;1.40;;
3347;SDS011;1687;49.540;8.574;2023-09-19T03:13:41;7.00;;;1.83;;
3347;SDS011;1687;49.540;8.574;2023-09-19T03:16:07;5.57;;;2.47;;
3347;SDS011;1687;49.540;8.574;2023-09-19T03:18:34;7.20;;;1.90;;
3347;SDS011;1687;49.540;8.574;2023-09-19T03:20:59;5.83;;;2.03;;
3347;SDS011;1687;49.540;8.574;2023-09-19T03:23:26;3.90;;;1.87;;
3347;SDS011;1687;49.540;8.574;2023-09-19T03:25:53;3.77;;;1.90;;
3347;SDS011;1687;49.540;8.574;2023-09-19T03:28:21;9.57;;;1.90;;
3347;SDS011;1687;49.540;8.574;2023-09-19T03:30:59;4.00;;;1.70;;
3347;SDS011;1687;49.540;8.574;2023-09-19T03:33:31;6.70;;;2.20;;
3347;SDS011;1687;49.540;8.574;2023-09-19T03:35:59;8.00;;;2.53;;
3347;SDS011;1687;49.540;8.574;2023-09-19T03:38:26;4.83;;;2.23;;
3347;SDS011;1687;49.540;8.574;2023-09-19T03:40:53;10.33;;;2.77;;
3347;SDS011;1687;49.540;8.574;2023-09-19T03:43:19;4.50;;;2.47;;
3347;SDS011;1687;49.540;8.574;2023-09-19T03:45:45;4.67;;;2.13;;
3347;SDS011;1687;49.540;8.574;2023-09-19T03:48:11;5.83;;;3.00;;
3347;SDS011;1687;49.540;8.574;2023-09-19T03:50:38;6.50;;;2.60;;
3347;SDS011;1687;49.540;8.574;2023-09-19T03:53:04;6.17;;;2.27;;
3347;SDS011;1687;49.540;8.574;2023-09-19T03:55:32;4.17;;;2.23;;
3347;SDS011;1687;49.540;8.574;2023-09-19T03:58:00;6.30;;;2.30;;
3347;SDS011;1687;49.540;8.574;2023-09-19T04:00:27;7.97;;;2.50;;
3347;SDS011;1687;49.540;8.574;2023-09-19T04:02:54;11.90;;;3.13;;
3347;SDS011;1687;49.540;8.574;2023-09-19T04:05:21;4.83;;;2.80;;
3347;SDS011;1687;49.540;8.574;2023-09-19T04:07:47;5.87;;;3.30;;
3347;SDS011;1687;49.540;8.574;2023-09-19T04:10:13;6.37;;;3.50;;
3347;SDS011;1687;49.540;8.574;2023-09-19T04:12:40;7.13;;;2.90;;
3347;SDS011;1687;49.540;8.574;2023-09-19T04:15:06;10.90;;;3.13;;
3347;SDS011;1687;49.540;8.574;2023-09-19T04:17:33;9.03;;;4.20;;
3347;SDS011;1687;49.540;8.574;2023-09-19T04:19:59;6.30;;;2.67;;
3347;SDS011;1687;49.540;8.574;2023-09-19T04:22:25;4.90;;;2.83;;
3347;SDS011;1687;49.540;8.574;2023-09-19T04:24:50;8.50;;;3.53;;
3347;SDS011;1687;49.540;8.574;2023-09-19T04:27:16;6.63;;;3.30;;
3347;SDS011;1687;49.540;8.574;2023-09-19T04:29:43;6.37;;;3.13;;
3347;SDS011;1687;49.540;8.574;2023-09-19T04:32:09;9.93;;;3.43;;
3347;SDS011;1687;49.540;8.574;2023-09-19T04:34:35;7.33;;;2.87;;
3347;SDS011;1687;49.540;8.574;2023-09-19T04:37:03;7.20;;;3.30;;
3347;SDS011;1687;49.540;8.574;2023-09-19T04:39:29;5.03;;;2.83;;
3347;SDS011;1687;49.540;8.574;2023-09-19T04:41:54;7.17;;;2.90;;
3347;SDS011;1687;49.540;8.574;2023-09-19T04:44:20;9.93;;;3.07;;
3347;SDS011;1687;49.540;8.574;2023-09-19T04:46:46;7.17;;;3.17;;
3347;SDS011;1687;49.540;8.574;2023-09-19T04:49:12;7.20;;;2.80;;
3347;SDS011;1687;49.540;8.574;2023-09-19T04:51:38;6.10;;;3.00;;
3347;SDS011;1687;49.540;8.574;2023-09-19T04:54:05;6.13;;;3.10;;
3347;SDS011;1687;49.540;8.574;2023-09-19T04:56:32;4.67;;;2.67;;
3347;SDS011;1687;49.540;8.574;2023-09-19T04:58:58;6.53;;;3.40;;
3347;SDS011;1687;49.540;8.574;2023-09-19T05:01:25;6.13;;;3.03;;
3347;SDS011;1687;49.540;8.574;2023-09-19T05:03:51;5.67;;;3.13;;
3347;SDS011;1687;49.540;8.574;2023-09-19T05:06:18;7.23;;;3.47;;
3347;SDS011;1687;49.540;8.574;2023-09-19T05:08:46;7.23;;;2.90;;
3347;SDS011;1687;49.540;8.574;2023-09-19T05:11:17;7.20;;;3.07;;
3347;SDS011;1687;49.540;8.574;2023-09-19T05:13:48;7.53;;;3.93;;
3347;SDS011;1687;49.540;8.574;2023-09-19T05:16:17;6.70;;;3.27;;
3347;SDS011;1687;49.540;8.574;2023-09-19T05:18:44;4.07;;;3.00;;
3347;SDS011;1687;49.540;8.574;2023-09-19T05:21:10;9.63;;;2.90;;
3347;SDS011;1687;49.540;8.574;2023-09-19T05:23:36;12.00;;;3.50;;
3347;SDS011;1687;49.540;8.574;2023-09-19T05:26:02;5.70;;;3.33;;
3347;SDS011;1687;49.540;8.574;2023-09-19T05:28:30;5.00;;;2.93;;
3347;SDS011;1687;49.540;8.574;2023-09-19T05:30:57;6.20;;;3.27;;
3347;SDS011;1687;49.540;8.574;2023-09-19T05:33:27;5.10;;;2.70;;
3347;SDS011;1687;49.540;8.574;2023-09-19T05:35:53;5.20;;;2.80;;
3347;SDS011;1687;49.540;8.574;2023-09-19T05:38:19;5.47;;;2.83;;
3347;SDS011;1687;49.540;8.574;2023-09-19T05:40:45;6.93;;;2.93;;
3347;SDS011;1687;49.540;8.574;2023-09-19T05:43:11;8.27;;;3.07;;
3347;SDS011;1687;49.540;8.574;2023-09-19T05:45:39;8.57;;;3.30;;
3347;SDS011;1687;49.540;8.574;2023-09-19T05:48:09;6.83;;;2.70;;
3347;SDS011;1687;49.540;8.574;2023-09-19T05:50:38;11.20;;;3.70;;
3347;SDS011;1687;49.540;8.574;2023-09-19T05:53:05;8.67;;;3.00;;
3347;SDS011;1687;49.540;8.574;2023-09-19T05:55:31;8.23;;;3.50;;
3347;SDS011;1687;49.540;8.574;2023-09-19T05:57:57;13.00;;;3.10;;
3347;SDS011;1687;49.540;8.574;2023-09-19T06:00:24;10.77;;;2.73;;
3347;SDS011;1687;49.540;8.574;2023-09-19T06:02:56;6.43;;;2.77;;
3347;SDS011;1687;49.540;8.574;2023-09-19T06:05:23;10.20;;;3.63;;
3347;SDS011;1687;49.540;8.574;2023-09-19T06:07:53;12.30;;;3.23;;
3347;SDS011;1687;49.540;8.574;2023-09-19T06:10:19;6.13;;;2.57;;
3347;SDS011;1687;49.540;8.574;2023-09-19T06:12:48;5.77;;;2.80;;
3347;SDS011;1687;49.540;8.574;2023-09-19T06:15:14;4.20;;;2.47;;
3347;SDS011;1687;49.540;8.574;2023-09-19T06:17:47;7.60;;;3.23;;
3347;SDS011;1687;49.540;8.574;2023-09-19T06:20:14;6.43;;;2.43;;
3347;SDS011;1687;49.540;8.574;2023-09-19T06:22:42;9.77;;;3.27;;
3347;SDS011;1687;49.540;8.574;2023-09-19T06:25:09;8.37;;;3.00;;
3347;SDS011;1687;49.540;8.574;2023-09-19T06:27:40;11.40;;;3.27;;
3347;SDS011;1687;49.540;8.574;2023-09-19T06:30:07;6.70;;;2.87;;
3347;SDS011;1687;49.540;8.574;2023-09-19T06:32:34;7.00;;;2.67;;
3347;SDS011;1687;49.540;8.574;2023-09-19T06:35:01;13.87;;;3.90;;
3347;SDS011;1687;49.540;8.574;2023-09-19T06:37:28;9.30;;;3.47;;
3347;SDS011;1687;49.540;8.574;2023-09-19T06:39:54;9.73;;;2.87;;
3347;SDS011;1687;49.540;8.574;2023-09-19T06:42:21;5.90;;;2.57;;
3347;SDS011;1687;49.540;8.574;2023-09-19T06:44:47;4.60;;;2.20;;
3347;SDS011;1687;49.540;8.574;2023-09-19T06:47:14;6.33;;;2.50;;
3347;SDS011;1687;49.540;8.574;2023-09-19T06:49:41;17.90;;;3.53;;
3347;SDS011;1687;49.540;8.574;2023-09-19T06:52:09;5.37;;;2.50;;
3347;SDS011;1687;49.540;8.574;2023-09-19T06:54:35;5.40;;;2.53;;
3347;SDS011;1687;49.540;8.574;2023-09-19T06:57:01;5.10;;;2.30;;
3347;SDS011;1687;49.540;8.574;2023-09-19T06:59:26;21.53;;;2.77;;
3347;SDS011;1687;49.540;8.574;2023-09-19T07:01:52;6.43;;;2.50;;
3347;SDS011;1687;49.540;8.574;2023-09-19T07:04:18;7.63;;;2.50;;
3347;SDS011;1687;49.540;8.574;2023-09-19T07:06:49;6.30;;;2.53;;
3347;SDS011;1687;49.540;8.574;2023-09-19T07:09:16;10.40;;;2.20;;
3347;SDS011;1687;49.540;8.574;2023-09-19T07:11:44;5.53;;;2.50;;
3347;SDS011;1687;49.540;8.574;2023-09-19T07:14:10;6.23;;;2.10;;
3347;SDS011;1687;49.540;8.574;2023-09-19T07:16:38;5.67;;;2.80;;
3347;SDS011;1687;49.540;8.574;2023-09-19T07:19:05;8.73;;;2.57;;
3347;SDS011;1687;49.540;8.574;2023-09-19T07:21:31;18.87;;;2.97;;
3347;SDS011;1687;49.540;8.574;2023-09-19T07:24:00;6.47;;;3.00;;
3347;SDS011;1687;49.540;8.574;2023-09-19T07:26:28;4.63;;;2.33;;
3347;SDS011;1687;49.540;8.574;2023-09-19T07:28:54;4.90;;;2.30;;
3347;SDS011;1687;49.540;8.574;2023-09-19T07:31:21;4.83;;;2.23;;
3347;SDS011;1687;49.540;8.574;2023-09-19T07:33:47;7.33;;;3.50;;
3347;SDS011;1687;49.540;8.574;2023-09-19T07:36:14;14.43;;;3.87;;
3347;SDS011;1687;49.540;8.574;2023-09-19T07:38:40;12.80;;;3.43;;
3347;SDS011;1687;49.540;8.574;2023-09-19T07:41:06;6.40;;;2.90;;
3347;SDS011;1687;49.540;8.574;2023-09-19T07:43:33;5.63;;;2.77;;
3347;SDS011;1687;49.540;8.574;2023-09-19T07:46:05;10.10;;;2.50;;
3347;SDS011;1687;49.540;8.574;2023-09-19T07:48:34;7.43;;;2.83;;
3347;SDS011;1687;49.540;8.574;2023-09-19T07:51:04;4.40;;;2.40;;
3347;SDS011;1687;49.540;8.574;2023-09-19T07:53:32;5.73;;;2.97;;
3347;SDS011;1687;49.540;8.574;2023-09-19T07:56:03;5.50;;;2.70;;
3347;SDS011;1687;49.540;8.574;2023-09-19T07:58:34;5.40;;;2.90;;
3347;SDS011;1687;49.540;8.574;2023-09-19T08:01:08;4.57;;;2.47;;
3347;SDS011;1687;49.540;8.574;2023-09-19T08:03:35;8.87;;;3.00;;
3347;SDS011;1687;49.540;8.574;2023-09-19T08:06:09;6.57;;;3.10;;
3347;SDS011;1687;49.540;8.574;2023-09-19T08:08:36;4.50;;;2.33;;
3347;SDS011;1687;49.540;8.574;2023-09-19T08:11:03;7.83;;;3.17;;
3347;SDS011;1687;49.540;8.574;2023-09-19T08:13:36;7.23;;;2.57;;
3347;SDS011;1687;49.540;8.574;2023-09-19T08:16:03;5.97;;;2.67;;
3347;SDS011;1687;49.540;8.574;2023-09-19T08:18:30;6.97;;;2.53;;
3347;SDS011;1687;49.540;8.574;2023-09-19T08:20:58;6.07;;;2.40;;
3347;SDS011;1687;49.540;8.574;2023-09-19T08:23:25;5.30;;;2.83;;
3347;SDS011;1687;49.540;8.574;2023-09-19T08:25:55;5.07;;;2.43;;
3347;SDS011;1687;49.540;8.574;2023-09-19T08:28:22;4.20;;;2.73;;
3347;SDS011;1687;49.540;8.574;2023-09-19T08:30:49;6.30;;;2.83;;
3347;SDS011;1687;49.540;8.574;2023-09-19T08:33:16;5.70;;;2.40;;
3347;SDS011;1687;49.540;8.574;2023-09-19T08:35:42;4.37;;;2.50;;
3347;SDS011;1687;49.540;8.574;2023-09-19T08:38:08;8.57;;;3.03;;
3347;SDS011;1687;49.540;8.574;2023-09-19T08:40:38;9.07;;;3.10;;
3347;SDS011;1687;49.540;8.574;2023-09-19T08:43:06;6.40;;;3.00;;
3347;SDS011;1687;49.540;8.574;2023-09-19T08:45:33;5.40;;;2.87;;
3347;SDS011;1687;49.540;8.574;2023-09-19T08:48:06;6.83;;;3.40;;
3347;SDS011;1687;49.540;8.574;2023-09-19T08:50:57;6.83;;;3.30;;
3347;SDS011;1687;49.540;8.574;2023-09-19T08:53:36;8.50;;;3.20;;
3347;SDS011;1687;49.540;8.574;2023-09-19T08:56:11;6.30;;;2.87;;
3347;SDS011;1687;49.540;8.574;2023-09-19T08:58:40;8.07;;;3.43;;
3347;SDS011;1687;49.540;8.574;2023-09-19T09:01:18;7.33;;;3.03;;
3347;SDS011;1687;49.540;8.574;2023-09-19T09:03:51;4.90;;;3.20;;
3347;SDS011;1687;49.540;8.574;2023-09-19T09:06:18;5.33;;;3.13;;
3347;SDS011;1687;49.540;8.574;2023-09-19T09:08:45;5.30;;;2.87;;
3347;SDS011;1687;49.540;8.574;2023-09-19T09:11:13;9.53;;;2.90;;
3347;SDS011;1687;49.540;8.574;2023-09-19T09:13:41;10.10;;;3.40;;
3347;SDS011;1687;49.540;8.574;2023-09-19T09:16:09;5.23;;;3.10;;
3347;SDS011;1687;49.540;8.574;2023-09-19T09:18:36;5.47;;;3.87;;
3347;SDS011;1687;49.540;8.574;2023-09-19T09:21:02;7.43;;;3.30;;
3347;SDS011;1687;49.540;8.574;2023-09-19T09:23:29;5.83;;;2.50;;
3347;SDS011;1687;49.540;8.574;2023-09-19T09:25:57;4.23;;;2.70;;
3347;SDS011;1687;49.540;8.574;2023-09-19T09:28:31;4.63;;;3.10;;
3347;SDS011;1687;49.540;8.574;2023-09-19T09:31:00;8.10;;;3.33;;
3347;SDS011;1687;49.540;8.574;2023-09-19T09:33:28;9.50;;;2.53;;
3347;SDS011;1687;49.540;8.574;2023-09-19T09:35:55;8.50;;;2.77;;
3347;SDS011;1687;49.540;8.574;2023-09-19T09:38:26;5.30;;;1.90;;
3347;SDS011;1687;49.540;8.574;2023-09-19T09:41:10;8.13;;;2.67;;
3347;SDS011;1687;49.540;8.574;2023-09-19T09:43:40;4.90;;;2.53;;
3347;SDS011;1687;49.540;8.574;2023-09-19T09:48:57;4.53;;;2.43;;
3347;SDS011;1687;49.540;8.574;2023-09-19T09:54:39;4.17;;;2.00;;
3347;SDS011;1687;49.540;8.574;2023-09-19T09:57:25;8.47;;;3.40;;
3347;SDS011;1687;49.540;8.574;2023-09-19T09:59:58;14.47;;;2.83;;
3347;SDS011;1687;49.540;8.574;2023-09-19T10:02:41;6.27;;;2.67;;
3347;SDS011;1687;49.540;8.574;2023-09-19T10:05:15;7.53;;;3.07;;
3347;SDS011;1687;49.540;8.574;2023-09-19T10:07:45;6.43;;;2.77;;
3347;SDS011;1687;49.540;8.574;2023-09-19T10:10:36;18.37;;;3.10;;
3347;SDS011;1687;49.540;8.574;2023-09-19T10:13:24;7.53;;;3.57;;
3347;SDS011;1687;49.540;8.574;2023-09-19T10:15:54;10.53;;;3.40;;
3347;SDS011;1687;49.540;8.574;2023-09-19T10:18:22;8.17;;;2.97;;
3347;SDS011;1687;49.540;8.574;2023-09-19T10:20:50;5.30;;;2.80;;
3347;SDS011;1687;49.540;8.574;2023-09-19T10:23:17;3.33;;;2.00;;
3347;SDS011;1687;49.540;8.574;2023-09-19T10:25:48;16.97;;;2.43;;
3347;SDS011;1687;49.540;8.574;2023-09-19T10:28:16;5.83;;;3.17;;
3347;SDS011;1687;49.540;8.574;2023-09-19T10:30:48;5.07;;;2.60;;
3347;SDS011;1687;49.540;8.574;2023-09-19T10:33:17;7.10;;;2.77;;
3347;SDS011;1687;49.540;8.574;2023-09-19T10:35:48;5.80;;;2.23;;
3347;SDS011;1687;49.540;8.574;2023-09-19T10:38:20;5.23;;;2.27;;
3347;SDS011;1687;49.540;8.574;2023-09-19T10:40:50;5.20;;;2.17;;
3347;SDS011;1687;49.540;8.574;2023-09-19T10:43:20;5.40;;;2.90;;
3347;SDS011;1687;49.540;8.574;2023-09-19T10:45:48;4.00;;;2.07;;
3347;SDS011;1687;49.540;8.574;2023-09-19T10:48:17;7.73;;;2.10;;
3347;SDS011;1687;49.540;8.574;2023-09-19T10:50:46;7.63;;;2.30;;
3347;SDS011;1687;49.540;8.574;2023-09-19T10:53:17;11.83;;;2.70;;
3347;SDS011;1687;49.540;8.574;2023-09-19T10:55:52;7.33;;;1.60;;
3347;SDS011;1687;49.540;8.574;2023-09-19T10:58:28;4.30;;;2.40;;
3347;SDS011;1687;49.540;8.574;2023-09-19T11:00:59;5.07;;;1.73;;
3347;SDS011;1687;49.540;8.574;2023-09-19T11:03:37;6.27;;;1.43;;
3347;SDS011;1687;49.540;8.574;2023-09-19T11:08:51;4.47;;;1.87;;
3347;SDS011;1687;49.540;8.574;2023-09-19T11:11:48;3.60;;;1.80;;
3347;SDS011;1687;49.540;8.574;2023-09-19T11:30:39;2.50;;;1.40;;
3347;SDS011;1687;49.540;8.574;2023-09-19T11:33:15;3.00;;;1.10;;
3347;SDS011;1687;49.540;8.574;2023-09-19T11:43:51;7.93;;;1.37;;
3347;SDS011;1687;49.540;8.574;2023-09-19T11:46:25;3.57;;;1.27;;
3347;SDS011;1687;49.540;8.574;2023-09-19T11:48:53;5.03;;;2.00;;
3347;SDS011;1687;49.540;8.574;2023-09-19T11:51:25;5.13;;;1.50;;
3347;SDS011;1687;49.540;8.574;2023-09-19T11:53:54;4.73;;;1.67;;
3347;SDS011;1687;49.540;8.574;2023-09-19T11:56:27;2.40;;;1.30;;
3347;SDS011;1687;49.540;8.574;2023-09-19T11:58:54;4.87;;;1.30;;
3347;SDS011;1687;49.540;8.574;2023-09-19T12:01:27;2.30;;;1.17;;
3347;SDS011;1687;49.540;8.574;2023-09-19T12:03:56;4.03;;;1.60;;
3347;SDS011;1687;49.540;8.574;2023-09-19T12:06:24;5.50;;;1.50;;
3347;SDS011;1687;49.540;8.574;2023-09-19T12:08:52;6.00;;;1.23;;
3347;SDS011;1687;49.540;8.574;2023-09-19T12:11:22;4.40;;;1.73;;
3347;SDS011;1687;49.540;8.574;2023-09-19T12:13:48;4.17;;;1.13;;
3347;SDS011;1687;49.540;8.574;2023-09-19T12:16:19;2.50;;;1.20;;
3347;SDS011;1687;49.540;8.574;2023-09-19T12:18:49;7.53;;;1.67;;
3347;SDS011;1687;49.540;8.574;2023-09-19T12:21:31;5.70;;;1.80;;
3347;SDS011;1687;49.540;8.574;2023-09-19T12:26:40;7.73;;;1.23;;
3347;SDS011;1687;49.540;8.574;2023-09-19T12:29:19;6.67;;;2.07;;
3347;SDS011;1687;49.540;8.574;2023-09-19T12:31:50;5.23;;;1.70;;
3347;SDS011;1687;49.540;8.574;2023-09-19T12:34:26;3.00;;;1.53;;
3347;SDS011;1687;49.540;8.574;2023-09-19T12:37:09;3.20;;;1.37;;
3347;SDS011;1687;49.540;8.574;2023-09-19T12:39:46;5.53;;;1.50;;
3347;SDS011;1687;49.540;8.574;2023-09-19T12:42:16;2.70;;;1.30;;
3347;SDS011;1687;49.540;8.574;2023-09-19T12:44:46;2.60;;;1.23;;
3347;SDS011;1687;49.540;8.574;2023-09-19T12:47:17;2.63;;;1.17;;
3347;SDS011;1687;49.540;8.574;2023-09-19T12:52:49;3.27;;;1.20;;
3347;SDS011;1687;49.540;8.574;2023-09-19T13:00:38;3.53;;;1.40;;
3347;SDS011;1687;49.540;8.574;2023-09-19T13:03:50;3.03;;;1.33;;
3347;SDS011;1687;49.540;8.574;2023-09-19T13:06:01;7.80;;;1.57;;
3347;SDS011;1687;49.540;8.574;2023-09-19T13:08:34;5.40;;;1.50;;
3347;SDS011;1687;49.540;8.574;2023-09-19T13:11:16;3.80;;;1.60;;
3347;SDS011;1687;49.540;8.574;2023-09-19T13:13:47;2.73;;;1.43;;
3347;SDS011;1687;49.540;8.574;2023-09-19T13:16:51;8.37;;;1.60;;
3347;SDS011;1687;49.540;8.574;2023-09-19T13:19:43;7.33;;;1.33;;
3347;SDS011;1687;49.540;8.574;2023-09-19T13:22:38;4.13;;;1.60;;
3347;SDS011;1687;49.540;8.574;2023-09-19T13:25:09;4.57;;;1.40;;
3347;SDS011;1687;49.540;8.574;2023-09-19T13:27:43;3.37;;;1.63;;
3347;SDS011;1687;49.540;8.574;2023-09-19T13:30:24;4.47;;;1.40;;
3347;SDS011;1687;49.540;8.574;2023-09-19T13:32:52;3.23;;;1.53;;
3347;SDS011;1687;49.540;8.574;2023-09-19T13:35:31;4.90;;;1.67;;
3347;SDS011;1687;49.540;8.574;2023-09-19T13:37:57;2.40;;;1.20;;
3347;SDS011;1687;49.540;8.574;2023-09-19T13:40:24;4.23;;;1.30;;
3347;SDS011;1687;49.540;8.574;2023-09-19T13:42:59;7.20;;;1.20;;
3347;SDS011;1687;49.540;8.574;2023-09-19T13:45:26;4.80;;;1.20;;
3347;SDS011;1687;49.540;8.574;2023-09-19T13:47:52;4.23;;;1.30;;
3347;SDS011;1687;49.540;8.574;2023-09-19T13:50:18;2.60;;;1.23;;
3347;SDS011;1687;49.540;8.574;2023-09-19T13:52:48;9.90;;;1.87;;
3347;SDS011;1687;49.540;8.574;2023-09-19T13:55:16;4.47;;;1.27;;
3347;SDS011;1687;49.540;8.574;2023-09-19T13:57:45;2.30;;;1.40;;
3347;SDS011;1687;49.540;8.574;2023-09-19T14:00:19;4.30;;;1.30;;
3347;SDS011;1687;49.540;8.574;2023-09-19T14:02:46;5.00;;;1.47;;
3347;SDS011;1687;49.540;8.574;2023-09-19T14:05:13;3.70;;;1.43;;
3347;SDS011;1687;49.540;8.574;2023-09-19T14:07:41;2.60;;;1.33;;
3347;SDS011;1687;49.540;8.574;2023-09-19T14:10:08;3.33;;;1.20;;
3347;SDS011;1687;49.540;8.574;2023-09-19T14:12:35;3.30;;;1.40;;
3347;SDS011;1687;49.540;8.574;2023-09-19T14:15:02;5.27;;;1.40;;
3347;SDS011;1687;49.540;8.574;2023-09-19T14:17:29;4.43;;;1.47;;
3347;SDS011;1687;49.540;8.574;2023-09-19T14:19:55;3.30;;;1.10;;
3347;SDS011;1687;49.540;8.574;2023-09-19T14:22:20;8.80;;;1.30;;
3347;SDS011;1687;49.540;8.574;2023-09-19T14:24:47;6.53;;;1.10;;
3347;SDS011;1687;49.540;8.574;2023-09-19T14:27:13;4.77;;;2.00;;
3347;SDS011;1687;49.540;8.574;2023-09-19T14:29:38;15.70;;;1.60;;
3347;SDS011;1687;49.540;8.574;2023-09-19T14:32:04;3.80;;;1.30;;
3347;SDS011;1687;49.540;8.574;2023-09-19T14:34:30;4.93;;;1.33;;
3347;SDS011;1687;49.540;8.574;2023-09-19T14:36:56;4.77;;;1.67;;
3347;SDS011;1687;49.540;8.574;2023-09-19T14:39:22;2.77;;;1.33;;
3347;SDS011;1687;49.540;8.574;2023-09-19T14:41:48;2.73;;;1.00;;
3347;SDS011;1687;49.540;8.574;2023-09-19T14:44:14;1.90;;;1.03;;
3347;SDS011;1687;49.540;8.574;2023-09-19T14:46:43;2.97;;;1.00;;
3347;SDS011;1687;49.540;8.574;2023-09-19T14:49:09;1.73;;;1.10;;
3347;SDS011;1687;49.540;8.574;2023-09-19T14:51:37;3.03;;;1.30;;
3347;SDS011;1687;49.540;8.574;2023-09-19T14:54:04;2.10;;;1.10;;
3347;SDS011;1687;49.540;8.574;2023-09-19T14:56:32;5.17;;;2.50;;
3347;SDS011;1687;49.540;8.574;2023-09-19T14:58:58;3.93;;;1.50;;
3347;SDS011;1687;49.540;8.574;2023-09-19T15:01:24;3.10;;;1.27;;
3347;SDS011;1687;49.540;8.574;2023-09-19T15:03:50;3.20;;;1.30;;
3347;SDS011;1687;49.540;8.574;2023-09-19T15:06:15;2.57;;;1.27;;
3347;SDS011;1687;49.540;8.574;2023-09-19T15:08:45;4.47;;;1.47;;
3347;SDS011;1687;49.540;8.574;2023-09-19T15:11:16;1.87;;;1.10;;
3347;SDS011;1687;49.540;8.574;2023-09-19T15:13:42;2.90;;;1.10;;
3347;SDS011;1687;49.540;8.574;2023-09-19T15:16:10;2.37;;;1.37;;
3347;SDS011;1687;49.540;8.574;2023-09-19T15:18:37;3.73;;;0.90;;
3347;SDS011;1687;49.540;8.574;2023-09-19T15:21:06;6.30;;;1.20;;
3347;SDS011;1687;49.540;8.574;2023-09-19T15:23:34;4.70;;;1.20;;
3347;SDS011;1687;49.540;8.574;2023-09-19T15:26:01;1.80;;;0.90;;
3347;SDS011;1687;49.540;8.574;2023-09-19T15:28:32;4.77;;;1.30;;
3347;SDS011;1687;49.540;8.574;2023-09-19T15:31:02;1.60;;;1.07;;
3347;SDS011;1687;49.540;8.574;2023-09-19T15:33:30;3.40;;;1.17;;
3347;SDS011;1687;49.540;8.574;2023-09-19T15:36:03;3.93;;;1.40;;
3347;SDS011;1687;49.540;8.574;2023-09-19T15:41:30;3.40;;;1.43;;
3347;SDS011;1687;49.540;8.574;2023-09-19T15:44:02;3.10;;;1.00;;
3347;SDS011;1687;49.540;8.574;2023-09-19T15:46:32;1.83;;;1.03;;
3347;SDS011;1687;49.540;8.574;2023-09-19T15:49:00;3.73;;;1.27;;
3347;SDS011;1687;49.540;8.574;2023-09-19T15:51:26;1.60;;;1.00;;
3347;SDS011;1687;49.540;8.574;2023-09-19T15:53:53;2.33;;;1.23;;
3347;SDS011;1687;49.540;8.574;2023-09-19T15:56:22;6.70;;;1.10;;
3347;SDS011;1687;49.540;8.574;2023-09-19T15:58:52;8.20;;;2.00;;
3347;SDS011;1687;49.540;8.574;2023-09-19T16:01:19;3.33;;;1.70;;
3347;SDS011;1687;49.540;8.574;2023-09-19T16:03:50;2.90;;;1.70;;
3347;SDS011;1687;49.540;8.574;2023-09-19T16:06:19;2.03;;;1.50;;
3347;SDS011;1687;49.540;8.574;2023-09-19T16:08:49;7.90;;;1.60;;
3347;SDS011;1687;49.540;8.574;2023-09-19T16:11:17;3.10;;;1.50;;
3347;SDS011;1687;49.540;8.574;2023-09-19T16:13:45;3.77;;;1.70;;
3347;SDS011;1687;49.540;8.574;2023-09-19T16:16:13;7.13;;;1.77;;
3347;SDS011;1687;49.540;8.574;2023-09-19T16:18:51;5.47;;;1.63;;
3347;SDS011;1687;49.540;8.574;2023-09-19T16:21:22;3.70;;;1.47;;
3347;SDS011;1687;49.540;8.574;2023-09-19T16:23:50;4.37;;;1.33;;
3347;SDS011;1687;49.540;8.574;2023-09-19T16:26:16;4.23;;;1.67;;
3347;SDS011;1687;49.540;8.574;2023-09-19T16:28:45;2.40;;;1.43;;
3347;SDS011;1687;49.540;8.574;2023-09-19T16:31:12;2.63;;;1.23;;
3347;SDS011;1687;49.540;8.574;2023-09-19T16:33:39;3.17;;;1.27;;